createdAt,value
2023-11-20T00:00:14.141Z,97385.19
2023-11-20T00:02:45.108Z,97387.94
2023-11-20T00:05:13.079Z,97394.94
2023-11-20T00:07:41.934Z,97410.22
2023-11-20T00:10:09.836Z,97398.69
2023-11-20T00:12:37.482Z,97383.03
2023-11-20T00:15:05.832Z,97400.81
2023-11-20T00:17:33.482Z,97398.66
2023-11-20T00:20:01.225Z,97422.00
2023-11-20T00:22:28.815Z,97413.16
2023-11-20T00:24:57.353Z,97401.81
2023-11-20T00:27:25.014Z,97402.09
2023-11-20T00:29:52.600Z,97404.31
2023-11-20T00:32:20.174Z,97402.25
2023-11-20T00:34:47.765Z,97399.25
2023-11-20T00:37:19.492Z,97403.22
2023-11-20T00:39:47.330Z,97413.59
2023-11-20T00:42:14.931Z,97409.63
2023-11-20T00:44:42.528Z,97408.09
2023-11-20T00:47:10.305Z,97402.78
2023-11-20T00:49:39.109Z,97409.31
2023-11-20T00:52:06.851Z,97408.75
2023-11-20T00:54:34.452Z,97416.91
2023-11-20T00:57:02.021Z,97411.56
2023-11-20T00:59:29.614Z,97416.41
2023-11-20T01:01:57.221Z,97424.66
2023-11-20T01:04:24.858Z,97426.78
2023-11-20T01:06:52.752Z,97416.09
2023-11-20T01:09:20.593Z,97429.09
2023-11-20T01:11:48.180Z,97423.56
2023-11-20T01:14:15.962Z,97429.59
2023-11-20T01:16:43.566Z,97432.22
2023-11-20T01:19:11.197Z,97429.91
2023-11-20T01:21:40.974Z,97442.09
2023-11-20T01:24:09.000Z,97437.38
2023-11-20T01:26:39.708Z,97430.19
2023-11-20T01:29:08.507Z,97437.31
2023-11-20T01:31:36.144Z,97437.31
2023-11-20T01:34:03.973Z,97433.84
2023-11-20T01:36:31.677Z,97452.34
2023-11-20T01:38:59.265Z,97451.38
2023-11-20T01:41:30.647Z,97445.69
2023-11-20T01:43:58.253Z,97436.16
2023-11-20T01:46:30.084Z,97445.25
2023-11-20T01:49:00.239Z,97433.63
2023-11-20T01:51:32.244Z,97429.75
2023-11-20T01:54:00.663Z,97422.88
2023-11-20T01:56:29.653Z,97433.94
2023-11-20T01:59:02.425Z,97434.91
2023-11-20T02:01:31.855Z,97433.94
2023-11-20T02:04:02.028Z,97437.66
2023-11-20T02:06:30.087Z,97429.81
2023-11-20T02:08:58.166Z,97426.78
2023-11-20T02:11:29.800Z,97433.28
2023-11-20T02:13:59.379Z,97431.06
2023-11-20T02:16:27.029Z,97419.97
2023-11-20T02:18:54.787Z,97420.44
2023-11-20T02:21:22.438Z,97413.97
2023-11-20T02:23:50.129Z,97425.22
2023-11-20T02:26:42.374Z,97411.84
2023-11-20T02:29:30.933Z,97410.19
2023-11-20T02:31:58.742Z,97415.75
2023-11-20T02:34:26.451Z,97416.53
2023-11-20T02:36:54.048Z,97405.91
2023-11-20T02:39:21.693Z,97412.03
2023-11-20T02:41:51.552Z,97410.66
2023-11-20T02:44:19.243Z,97417.06
2023-11-20T02:46:46.863Z,97418.66
2023-11-20T02:49:14.607Z,97412.44
2023-11-20T02:51:43.584Z,97418.03
2023-11-20T02:54:11.325Z,97420.28
2023-11-20T02:56:41.996Z,97412.69
2023-11-20T02:59:09.563Z,97418.19
2023-11-20T03:01:37.432Z,97421.91
2023-11-20T03:04:05.828Z,97418.00
2023-11-20T03:06:33.547Z,97427.88
2023-11-20T03:09:01.137Z,97416.88
2023-11-20T03:11:28.708Z,97417.13
2023-11-20T03:13:56.294Z,97416.41
2023-11-20T03:16:24.072Z,97409.84
2023-11-20T03:18:51.726Z,97396.31
2023-11-20T03:21:19.336Z,97409.94
2023-11-20T03:23:46.901Z,97395.84
2023-11-20T03:26:14.611Z,97390.53
2023-11-20T03:28:42.184Z,97394.88
2023-11-20T03:31:09.830Z,97389.84
2023-11-20T03:33:37.517Z,97399.03
2023-11-20T03:36:05.568Z,97384.84
2023-11-20T03:38:33.145Z,97389.44
2023-11-20T03:41:00.723Z,97379.28
2023-11-20T03:43:29.440Z,97370.22
2023-11-20T03:45:57.272Z,97369.38
2023-11-20T03:48:24.944Z,97368.44
2023-11-20T03:50:52.523Z,97375.84
2023-11-20T03:53:20.865Z,97379.28
2023-11-20T03:55:48.472Z,97375.22
2023-11-20T03:58:16.082Z,97370.38
2023-11-20T04:00:43.692Z,97374.19
2023-11-20T04:03:11.306Z,97385.28
2023-11-20T04:05:39.719Z,97382.81
2023-11-20T04:08:09.096Z,97402.75
2023-11-20T04:10:39.574Z,97363.03
2023-11-20T04:13:08.960Z,97380.31
2023-11-20T04:15:36.741Z,97369.25
2023-11-20T04:18:04.383Z,97380.72
2023-11-20T04:20:32.297Z,97373.22
2023-11-20T04:23:00.238Z,97386.38
2023-11-20T04:25:27.831Z,97400.44
2023-11-20T04:27:55.592Z,97393.19
2023-11-20T04:30:26.114Z,97382.13
2023-11-20T04:32:53.737Z,97374.66
2023-11-20T04:35:21.381Z,97374.59
2023-11-20T04:37:48.981Z,97382.97
2023-11-20T04:40:17.171Z,97374.44
2023-11-20T04:42:45.427Z,97362.50
2023-11-20T04:45:13.620Z,97365.13
2023-11-20T04:47:41.910Z,97373.94
2023-11-20T04:50:10.180Z,97368.91
2023-11-20T04:52:38.103Z,97368.19
2023-11-20T04:55:06.640Z,97374.66
2023-11-20T04:57:34.976Z,97381.94
2023-11-20T05:00:05.421Z,97387.47
2023-11-20T05:02:33.062Z,97382.50
2023-11-20T05:05:00.685Z,97382.97
2023-11-20T05:07:28.352Z,97373.78
2023-11-20T05:09:55.976Z,97382.44
2023-11-20T05:12:23.579Z,97389.47
2023-11-20T05:14:51.157Z,97375.72
2023-11-20T05:17:21.334Z,97374.72
2023-11-20T05:19:49.266Z,97380.53
2023-11-20T05:22:18.432Z,97381.19
2023-11-20T05:24:46.288Z,97383.56
2023-11-20T05:27:13.932Z,97376.38
2023-11-20T05:29:41.559Z,97378.31
2023-11-20T05:32:09.324Z,97374.47
2023-11-20T05:34:37.024Z,97380.28
2023-11-20T05:37:04.827Z,97378.63
2023-11-20T05:39:32.794Z,97384.31
2023-11-20T05:42:00.338Z,97387.03
2023-11-20T05:44:27.991Z,97383.00
2023-11-20T05:46:55.697Z,97385.44
2023-11-20T05:49:23.756Z,97387.56
2023-11-20T05:51:52.779Z,97384.25
2023-11-20T05:54:20.417Z,97382.06
2023-11-20T05:56:48.313Z,97382.41
2023-11-20T05:59:15.999Z,97375.94
2023-11-20T06:01:44.128Z,97377.63
2023-11-20T06:04:12.287Z,97377.88
2023-11-20T06:06:40.418Z,97368.31
2023-11-20T06:09:11.440Z,97357.28
2023-11-20T06:11:39.202Z,97363.63
2023-11-20T06:14:06.848Z,97365.00
2023-11-20T06:16:34.605Z,97380.88
2023-11-20T06:19:02.369Z,97377.72
2023-11-20T06:21:30.030Z,97377.88
2023-11-20T06:23:57.638Z,97384.78
2023-11-20T06:26:27.114Z,97384.78
2023-11-20T06:28:55.038Z,97391.16
2023-11-20T06:31:22.650Z,97388.72
2023-11-20T06:33:50.283Z,97392.22
2023-11-20T06:36:18.398Z,97399.88
2023-11-20T06:38:46.068Z,97398.38
2023-11-20T06:41:18.451Z,97414.13
2023-11-20T06:43:46.613Z,97412.56
2023-11-20T06:46:22.430Z,97407.16
2023-11-20T06:48:50.569Z,97409.84
2023-11-20T06:51:18.234Z,97405.63
2023-11-20T06:53:45.817Z,97399.56
2023-11-20T06:56:22.876Z,97406.53
2023-11-20T06:58:52.573Z,97405.06
2023-11-20T07:01:20.357Z,97403.94
2023-11-20T07:03:48.052Z,97404.50
2023-11-20T07:06:16.787Z,97407.44
2023-11-20T07:08:44.985Z,97405.78
2023-11-20T07:11:12.575Z,97414.94
2023-11-20T07:13:40.148Z,97420.44
2023-11-20T07:16:09.053Z,97426.19
2023-11-20T07:18:36.706Z,97423.72
2023-11-20T07:21:04.544Z,97420.50
2023-11-20T07:23:32.168Z,97419.56
2023-11-20T07:25:59.791Z,97413.88
2023-11-20T07:28:27.522Z,97417.44
2023-11-20T07:30:55.170Z,97416.53
2023-11-20T07:33:22.789Z,97413.81
2023-11-20T07:35:52.179Z,97410.97
2023-11-20T07:38:19.824Z,97415.41
2023-11-20T07:40:47.483Z,97407.75
2023-11-20T07:43:17.353Z,97407.41
2023-11-20T07:45:46.711Z,97402.75
2023-11-20T07:48:14.407Z,97405.06
2023-11-20T07:50:42.090Z,97406.09
2023-11-20T07:53:09.786Z,97403.22
2023-11-20T07:55:37.363Z,97399.72
2023-11-20T07:58:05.255Z,97401.19
2023-11-20T08:00:33.199Z,97395.50
2023-11-20T08:03:00.809Z,97399.84
2023-11-20T08:05:29.531Z,97406.66
2023-11-20T08:07:58.049Z,97404.09
2023-11-20T08:10:25.717Z,97405.59
2023-11-20T08:12:53.462Z,97404.22
2023-11-20T08:15:21.048Z,97398.69
2023-11-20T08:17:48.782Z,97401.81
2023-11-20T08:20:19.323Z,97406.63
2023-11-20T08:22:46.923Z,97402.00
2023-11-20T08:25:14.999Z,97411.09
2023-11-20T08:27:44.792Z,97412.69
2023-11-20T08:30:12.941Z,97412.16
2023-11-20T08:32:40.635Z,97407.91
2023-11-20T08:35:10.353Z,97405.88
2023-11-20T08:37:37.983Z,97405.72
2023-11-20T08:40:09.944Z,97408.84
2023-11-20T08:42:37.674Z,97404.81
2023-11-20T08:45:06.201Z,97399.06
2023-11-20T08:47:36.213Z,97400.19
2023-11-20T08:50:04.697Z,97405.34
2023-11-20T08:52:32.402Z,97403.88
2023-11-20T08:55:00.008Z,97407.00
2023-11-20T08:57:27.623Z,97405.19
2023-11-20T08:59:55.322Z,97398.25
2023-11-20T09:02:23.859Z,97398.81
2023-11-20T09:04:51.695Z,97396.84
2023-11-20T09:07:19.491Z,97387.47
2023-11-20T09:09:47.196Z,97383.41
2023-11-20T09:12:14.858Z,97391.44
2023-11-20T09:14:43.676Z,97392.09
2023-11-20T09:17:11.335Z,97394.94
2023-11-20T09:19:38.954Z,97398.44
2023-11-20T09:22:06.603Z,97399.25
2023-11-20T09:24:34.235Z,97401.56
2023-11-20T09:27:01.859Z,97383.41
2023-11-20T09:29:29.438Z,97387.84
2023-11-20T09:31:57.109Z,97388.97
2023-11-20T09:34:24.911Z,97391.88
2023-11-20T09:36:52.695Z,97392.28
2023-11-20T09:39:20.959Z,97387.09
2023-11-20T09:41:48.715Z,97382.28
2023-11-20T09:44:19.077Z,97377.31
2023-11-20T09:46:47.906Z,97387.06
2023-11-20T09:49:24.062Z,97370.94
2023-11-20T09:51:56.449Z,97379.63
2023-11-20T09:54:27.425Z,97372.50
2023-11-20T09:56:55.480Z,97379.22
2023-11-20T09:59:23.373Z,97387.31
2023-11-20T10:01:52.928Z,97381.06
2023-11-20T10:04:22.417Z,97372.03
2023-11-20T10:06:53.094Z,97371.59
2023-11-20T10:09:23.166Z,97361.84
2023-11-20T10:11:54.363Z,97367.28
2023-11-20T10:14:21.971Z,97364.41
2023-11-20T10:16:52.471Z,97366.19
2023-11-20T10:19:20.375Z,97363.41
2023-11-20T10:21:49.000Z,97358.53
2023-11-20T10:24:20.240Z,97353.31
2023-11-20T10:26:47.865Z,97350.16
2023-11-20T10:29:17.117Z,97358.63
2023-11-20T10:31:46.249Z,97352.81
2023-11-20T10:34:15.231Z,97360.47
2023-11-20T10:36:42.871Z,97350.13
2023-11-20T10:39:13.283Z,97369.31
2023-11-20T10:41:42.943Z,97370.41
2023-11-20T10:44:10.804Z,97365.25
2023-11-20T10:46:42.677Z,97353.28
2023-11-20T10:49:13.990Z,97346.09
2023-11-20T10:51:48.341Z,97338.25
2023-11-20T10:54:18.568Z,97327.53
2023-11-20T10:56:47.702Z,97334.59
2023-11-20T10:59:18.192Z,97328.53
2023-11-20T11:01:46.148Z,97320.53
2023-11-20T11:04:15.270Z,97318.50
2023-11-20T11:06:47.076Z,97319.31
2023-11-20T11:09:19.247Z,97304.41
2023-11-20T11:11:50.533Z,97306.53
2023-11-20T11:14:18.148Z,97296.66
2023-11-20T11:16:54.002Z,97293.63
2023-11-20T11:19:29.095Z,97294.94
2023-11-20T11:22:03.576Z,97299.06
2023-11-20T11:24:37.201Z,97296.50
2023-11-20T11:27:18.880Z,97293.25
2023-11-20T11:29:57.732Z,97282.41
2023-11-20T11:32:41.950Z,97287.84
2023-11-20T11:35:24.957Z,97289.31
2023-11-20T11:38:22.321Z,97281.56
2023-11-20T11:41:24.833Z,97272.44
2023-11-20T11:44:17.377Z,97283.75
2023-11-20T11:46:45.252Z,97287.84
2023-11-20T11:49:24.187Z,97285.50
2023-11-20T11:51:58.381Z,97281.75
2023-11-20T11:54:27.949Z,97288.00
2023-11-20T11:57:05.505Z,97282.03
2023-11-20T11:59:38.949Z,97274.31
2023-11-20T12:02:08.797Z,97271.72
2023-11-20T12:04:57.378Z,97265.38
2023-11-20T12:07:47.125Z,97263.53
2023-11-20T12:10:15.233Z,97259.75
2023-11-20T12:12:58.721Z,97254.31
2023-11-20T12:15:38.823Z,97243.91
2023-11-20T12:18:14.767Z,97242.63
2023-11-20T12:21:09.867Z,97241.41
2023-11-20T12:23:45.237Z,97247.59
2023-11-20T12:26:14.917Z,97248.25
2023-11-20T12:28:43.322Z,97237.56
2023-11-20T12:31:13.639Z,97232.69
2023-11-20T12:33:45.066Z,97241.34
2023-11-20T12:36:13.764Z,97240.25
2023-11-20T12:38:44.560Z,97240.16
2023-11-20T12:41:12.546Z,97240.16
2023-11-20T12:43:40.533Z,97230.63
2023-11-20T12:46:09.453Z,97235.91
2023-11-20T12:48:41.070Z,97234.34
2023-11-20T12:51:09.291Z,97226.75
2023-11-20T12:53:38.962Z,97218.38
2023-11-20T12:56:08.880Z,97213.84
2023-11-20T12:58:36.679Z,97220.47
2023-11-20T13:01:05.907Z,97205.38
2023-11-20T13:03:36.390Z,97209.53
2023-11-20T13:06:07.347Z,97209.19
2023-11-20T13:08:36.966Z,97193.63
2023-11-20T13:11:05.104Z,97195.00
2023-11-20T13:13:33.421Z,97198.41
2023-11-20T13:16:01.605Z,97188.28
2023-11-20T13:18:30.309Z,97183.13
2023-11-20T13:20:58.939Z,97181.53
2023-11-20T13:23:31.178Z,97184.00
2023-11-20T13:26:10.171Z,97173.47
2023-11-20T13:28:39.059Z,97183.28
2023-11-20T13:31:09.527Z,97177.53
2023-11-20T13:33:42.865Z,97176.72
2023-11-20T13:36:11.973Z,97174.72
2023-11-20T13:38:40.040Z,97165.75
2023-11-20T13:41:08.792Z,97162.63
2023-11-20T13:43:36.816Z,97159.78
2023-11-20T13:46:07.594Z,97155.66
2023-11-20T13:48:36.044Z,97160.25
2023-11-20T13:51:06.207Z,97164.06
2023-11-20T13:53:34.886Z,97166.28
2023-11-20T13:56:02.563Z,97166.53
2023-11-20T13:58:30.221Z,97170.22
2023-11-20T14:01:00.807Z,97177.59
2023-11-20T14:03:31.506Z,97181.25
2023-11-20T14:06:01.347Z,97185.97
2023-11-20T14:08:31.690Z,97181.09
2023-11-20T14:11:00.295Z,97176.97
2023-11-20T14:13:31.305Z,97171.25
2023-11-20T14:16:00.122Z,97184.06
2023-11-20T14:18:29.123Z,97184.69
2023-11-20T14:20:58.273Z,97174.75
2023-11-20T14:23:26.082Z,97167.88
2023-11-20T14:28:24.439Z,97165.03
2023-11-20T14:30:53.345Z,97152.69
2023-11-20T14:33:21.002Z,97138.59
2023-11-20T14:35:49.156Z,97135.56
2023-11-20T14:38:16.802Z,97137.31
2023-11-20T14:40:45.148Z,97127.91
2023-11-20T14:43:13.458Z,97135.47
2023-11-20T14:45:41.122Z,97130.06
2023-11-20T14:48:08.732Z,97135.47
2023-11-20T14:50:36.350Z,97128.66
2023-11-20T14:53:05.055Z,97119.28
2023-11-20T14:55:34.464Z,97122.84
2023-11-20T14:58:02.404Z,97126.53
2023-11-20T15:00:30.059Z,97126.00
2023-11-20T15:03:00.549Z,97131.69
2023-11-20T15:05:28.447Z,97129.47
2023-11-20T15:07:56.041Z,97125.78
2023-11-20T15:10:23.911Z,97125.81
2023-11-20T15:12:52.700Z,97127.91
2023-11-20T15:15:20.989Z,97123.81
2023-11-20T15:17:48.916Z,97122.53
2023-11-20T15:20:19.324Z,97130.00
2023-11-20T15:22:47.508Z,97126.16
2023-11-20T15:25:17.725Z,97134.34
2023-11-20T15:27:46.089Z,97138.19
2023-11-20T15:30:16.279Z,97141.66
2023-11-20T15:32:46.350Z,97135.34
2023-11-20T15:35:15.335Z,97142.34
2023-11-20T15:37:43.658Z,97141.66
2023-11-20T15:40:12.783Z,97139.00
2023-11-20T15:42:42.939Z,97141.53
2023-11-20T15:45:12.222Z,97143.84
2023-11-20T15:47:40.135Z,97149.34
2023-11-20T15:50:08.695Z,97150.34
2023-11-20T15:52:36.380Z,97154.06
2023-11-20T15:55:04.443Z,97151.78
2023-11-20T15:57:32.165Z,97149.41
2023-11-20T16:00:00.923Z,97147.56
2023-11-20T16:02:32.230Z,97138.59
2023-11-20T16:05:00.067Z,97121.66
2023-11-20T16:07:27.727Z,97117.72
2023-11-20T16:09:56.720Z,97116.06
2023-11-20T16:12:24.405Z,97118.25
2023-11-20T16:14:54.465Z,97117.25
2023-11-20T16:17:22.085Z,97115.03
2023-11-20T16:19:49.722Z,97124.31
2023-11-20T16:22:17.654Z,97113.28
2023-11-20T16:24:45.325Z,97112.75
2023-11-20T16:27:12.952Z,97111.72
2023-11-20T16:29:40.523Z,97107.91
2023-11-20T16:32:08.152Z,97111.84
2023-11-20T16:34:37.532Z,97113.88
2023-11-20T16:37:08.547Z,97112.38
2023-11-20T16:39:36.650Z,97110.09
2023-11-20T16:42:05.092Z,97112.75
2023-11-20T16:44:32.673Z,97104.56
2023-11-20T16:47:00.517Z,97111.91
2023-11-20T16:49:28.419Z,97110.78
2023-11-20T16:51:58.135Z,97109.44
2023-11-20T16:54:25.756Z,97109.44
2023-11-20T16:56:53.772Z,97108.25
2023-11-20T16:59:21.407Z,97103.09
2023-11-20T17:01:49.122Z,97105.09
2023-11-20T17:04:16.945Z,97105.09
2023-11-20T17:06:45.889Z,97102.44
2023-11-20T17:09:15.777Z,97099.78
2023-11-20T17:11:43.578Z,97103.47
2023-11-20T17:14:11.216Z,97096.63
2023-11-20T17:16:38.851Z,97105.28
2023-11-20T17:19:06.685Z,97099.13
2023-11-20T17:21:34.397Z,97109.16
2023-11-20T17:24:01.982Z,97105.34
2023-11-20T17:26:30.353Z,97107.38
2023-11-20T17:28:57.941Z,97109.06
2023-11-20T17:31:28.628Z,97101.88
2023-11-20T17:33:59.047Z,97111.72
2023-11-20T17:36:27.990Z,97098.91
2023-11-20T17:38:55.667Z,97090.91
2023-11-20T17:41:23.279Z,97081.06
2023-11-20T17:43:50.893Z,97078.97
2023-11-20T17:46:19.025Z,97081.97
2023-11-20T17:48:46.764Z,97079.50
2023-11-20T17:51:14.326Z,97080.69
2023-11-20T17:53:41.906Z,97080.03
2023-11-20T17:56:10.923Z,97086.56
2023-11-20T17:58:38.666Z,97093.34
2023-11-20T18:01:06.767Z,97080.19
2023-11-20T18:03:34.791Z,97090.88
2023-11-20T18:06:02.683Z,97085.75
2023-11-20T18:08:30.861Z,97086.72
2023-11-20T18:10:59.915Z,97085.91
2023-11-20T18:13:27.565Z,97083.06
2023-11-20T18:15:55.489Z,97088.75
2023-11-20T18:18:23.110Z,97091.88
2023-11-20T18:20:50.988Z,97082.88
2023-11-20T18:23:18.627Z,97072.59
2023-11-20T18:25:46.397Z,97087.09
2023-11-20T18:28:16.294Z,97076.44
2023-11-20T18:30:43.880Z,97087.94
2023-11-20T18:33:12.273Z,97091.75
2023-11-20T18:35:39.911Z,97083.97
2023-11-20T18:38:07.591Z,97077.63
2023-11-20T18:40:35.200Z,97082.94
2023-11-20T18:43:03.091Z,97074.78
2023-11-20T18:45:30.681Z,97074.31
2023-11-20T18:47:58.341Z,97078.97
2023-11-20T18:50:26.001Z,97073.00
2023-11-20T18:52:53.611Z,97077.50
2023-11-20T18:55:22.047Z,97067.69
2023-11-20T18:57:54.232Z,97073.47
2023-11-20T19:00:23.979Z,97072.47
2023-11-20T19:02:53.032Z,97074.94
2023-11-20T19:05:20.832Z,97079.28
2023-11-20T19:07:51.292Z,97075.97
2023-11-20T19:10:18.984Z,97078.63
2023-11-20T19:12:46.697Z,97079.13
2023-11-20T19:15:14.506Z,97089.56
2023-11-20T19:17:42.688Z,97084.72
2023-11-20T19:20:15.925Z,97076.53
2023-11-20T19:22:43.896Z,97085.19
2023-11-20T19:25:15.403Z,97087.03
2023-11-20T19:27:44.453Z,97085.84
2023-11-20T19:30:17.370Z,97071.88
2023-11-20T19:32:47.663Z,97077.09
2023-11-20T19:35:17.237Z,97074.13
2023-11-20T19:37:45.639Z,97077.63
2023-11-20T19:40:14.717Z,97078.16
2023-11-20T19:42:45.418Z,97085.50
2023-11-20T19:45:14.315Z,97081.00
2023-11-20T19:47:42.816Z,97078.97
2023-11-20T19:50:10.857Z,97078.81
2023-11-20T19:52:38.689Z,97078.00
2023-11-20T19:55:07.622Z,97077.63
2023-11-20T19:57:35.326Z,97073.78
2023-11-20T20:00:06.768Z,97074.59
2023-11-20T20:02:36.367Z,97073.41
2023-11-20T20:05:04.386Z,97071.22
2023-11-20T20:07:32.083Z,97074.88
2023-11-20T20:10:00.216Z,97067.91
2023-11-20T20:12:28.652Z,97064.22
2023-11-20T20:14:56.261Z,97065.25
2023-11-20T20:17:23.886Z,97056.22
2023-11-20T20:19:51.804Z,97053.75
2023-11-20T20:22:20.662Z,97051.09
2023-11-20T20:24:48.395Z,97054.75
2023-11-20T20:27:16.024Z,97042.47
2023-11-20T20:29:44.010Z,97049.59
2023-11-20T20:32:14.213Z,97049.59
2023-11-20T20:34:43.710Z,97061.28
2023-11-20T20:37:12.018Z,97048.94
2023-11-20T20:39:41.091Z,97061.94
2023-11-20T20:42:09.789Z,97064.75
2023-11-20T20:44:44.791Z,97065.59
2023-11-20T20:47:12.391Z,97066.13
2023-11-20T20:49:40.112Z,97055.81
2023-11-20T20:52:10.678Z,97060.00
2023-11-20T20:54:40.959Z,97054.66
2023-11-20T20:57:09.711Z,97052.34
2023-11-20T20:59:37.296Z,97054.69
2023-11-20T21:02:04.995Z,97058.56
2023-11-20T21:04:32.694Z,97064.91
2023-11-20T21:07:04.063Z,97054.44
2023-11-20T21:09:31.827Z,97051.94
2023-11-20T21:12:00.284Z,97049.63
2023-11-20T21:14:28.407Z,97053.47
2023-11-20T21:16:56.246Z,97051.84
2023-11-20T21:19:23.967Z,97048.31
2023-11-20T21:21:51.636Z,97051.63
2023-11-20T21:24:19.339Z,97059.63
2023-11-20T21:26:47.194Z,97059.34
2023-11-20T21:29:16.027Z,97054.19
2023-11-20T21:31:47.381Z,97056.22
2023-11-20T21:34:18.267Z,97057.19
2023-11-20T21:36:46.169Z,97054.06
2023-11-20T21:39:19.365Z,97060.41
2023-11-20T21:41:50.577Z,97053.94
2023-11-20T21:44:19.132Z,97052.97
2023-11-20T21:46:46.877Z,97063.25
2023-11-20T21:49:14.623Z,97061.41
2023-11-20T21:51:42.230Z,97066.72
2023-11-20T21:54:10.330Z,97062.03
2023-11-20T21:56:41.207Z,97055.13
2023-11-20T21:59:09.065Z,97057.63
2023-11-20T22:01:36.715Z,97065.97
2023-11-20T22:04:05.055Z,97068.16
2023-11-20T22:06:32.780Z,97048.59
2023-11-20T22:09:00.402Z,97043.44
2023-11-20T22:11:28.023Z,97044.31
2023-11-20T22:13:55.713Z,97044.16
2023-11-20T22:16:23.387Z,97037.00
2023-11-20T22:18:52.987Z,97031.72
2023-11-20T22:21:21.005Z,97028.72
2023-11-20T22:23:48.593Z,97031.38
2023-11-20T22:26:16.261Z,97025.75
2023-11-20T22:28:43.909Z,97021.72
2023-11-20T22:31:12.170Z,97027.22
2023-11-20T22:33:39.875Z,97027.22
2023-11-20T22:36:09.616Z,97017.59
2023-11-20T22:38:37.243Z,97016.56
2023-11-20T22:41:09.195Z,97016.25
2023-11-20T22:43:37.588Z,97014.81
2023-11-20T22:46:05.397Z,97018.78
2023-11-20T22:48:33.351Z,97013.81
2023-11-20T22:51:01.021Z,97015.66
2023-11-20T22:53:29.069Z,97016.63
2023-11-20T22:55:56.685Z,97020.31
2023-11-20T22:58:24.912Z,97016.63
2023-11-20T23:00:52.624Z,97019.47
2023-11-20T23:03:20.750Z,97022.13
2023-11-20T23:05:48.651Z,97024.63
2023-11-20T23:08:16.314Z,97021.78
2023-11-20T23:10:45.239Z,97019.47
2023-11-20T23:13:14.274Z,97015.34
2023-11-20T23:15:42.086Z,97013.03
2023-11-20T23:18:09.861Z,97001.56
2023-11-20T23:20:38.131Z,97011.06
2023-11-20T23:23:05.813Z,97004.91
2023-11-20T23:25:33.449Z,97003.75
2023-11-20T23:28:01.800Z,97002.75
2023-11-20T23:30:31.266Z,97010.09
2023-11-20T23:32:59.088Z,97004.13
2023-11-20T23:35:27.859Z,97011.28
2023-11-20T23:37:55.455Z,97011.09
2023-11-20T23:40:23.425Z,97017.41
2023-11-20T23:42:51.339Z,97002.47
2023-11-20T23:45:19.122Z,97003.94
2023-11-20T23:47:48.351Z,97002.31
2023-11-20T23:50:16.350Z,97010.44
2023-11-20T23:52:44.531Z,97015.44
2023-11-20T23:55:12.604Z,97013.81
2023-11-20T23:57:40.221Z,97014.47
